Main page
METAR-TAF:

METAR-TAF

Airports :

Apalachicola Regional Airport

Apalachicola, Florida, United States

latitude: 29-43-37N, longitude: 085-01-29W, elevation: 20 ft

Current weather observation

The report was made 15 minutes ago, at 08:53 UTC
Wind 16 mph from the Southeast with gusts up to 24 mph
Temperature 73°F
Humidity 78%
Pressure 30.09 in. Hg
Visibility: 10 miles
Scattered clouds at a height of 4800 ft
Broken clouds at a height of 6500 ft

METAR: KAAF 180853Z AUTO 13014G21KT 10SM SCT048 BKN065 23/19 A3009 RMK AO2 SLP188 T02330194 55004

Time: 05:08 (09:08 UTC)


TAF: missing

Weather observations and forecasts of more than 4000 airports (METAR and TAF reports).

The available stations are represented by yellow and red dots on the map.

Hover mouse over dot to see the name of the station.

Then click to see weather observations and forecasts.

To change the map : click on the green buttons with a black cross to zoom in, on the green button with a dash to zoom out, or on the green arrows for adjacent maps.


METAR-TAF: